Time;durP1;ratioP1;P1;durP2;ratioP2;P2;SDS_P1;SDS_P2;PMS_P1;PMS_P2;Temp;Humidity;BMP_temperature;BMP_pressure;BME280_temperature;BME280_humidity;BME280_pressure;Samples;Min_cycle;Max_cycle;Signal;HPM_P1;HPM_P2
2022/05/04 00:01:15;;;;;;;13.15;3.00;;;;;;;;;;5014119;28;20041;-66
2022/05/04 00:03:41;;;;;;;14.38;3.10;;;;;;;;;;5014351;28;20895;-66
2022/05/04 00:06:07;;;;;;;15.88;3.33;;;;;;;;;;5013166;28;20062;-66
2022/05/04 00:08:34;;;;;;;8.77;2.85;;;;;;;;;;5014059;28;20052;-66
2022/05/04 00:11:00;;;;;;;11.50;3.03;;;;;;;;;;5013909;28;20045;-66
2022/05/04 00:13:26;;;;;;;11.07;2.67;;;;;;;;;;5013248;28;20173;-66
2022/05/04 00:15:53;;;;;;;11.68;3.00;;;;;;;;;;5014001;28;20076;-66
2022/05/04 00:18:19;;;;;;;8.52;2.95;;;;;;;;;;5013832;28;20038;-66
2022/05/04 00:20:45;;;;;;;7.43;2.67;;;;;;;;;;5012911;28;20048;-65
2022/05/04 00:23:11;;;;;;;10.32;2.58;;;;;;;;;;5013748;28;20377;-65
2022/05/04 00:25:37;;;;;;;11.07;2.47;;;;;;;;;;5013637;28;20423;-65
2022/05/04 00:28:04;;;;;;;12.43;2.78;;;;;;;;;;5013008;28;20052;-65
2022/05/04 00:30:31;;;;;;;10.90;3.15;;;;;;;;;;5013701;28;20056;-65
2022/05/04 00:32:57;;;;;;;11.15;2.95;;;;;;;;;;5013818;28;20096;-65
2022/05/04 00:35:23;;;;;;;11.65;2.70;;;;;;;;;;5012888;28;20438;-65
2022/05/04 00:37:49;;;;;;;18.13;3.00;;;;;;;;;;5012519;28;20516;-65
2022/05/04 00:40:15;;;;;;;11.65;3.08;;;;;;;;;;5013353;28;20173;-65
2022/05/04 00:42:41;;;;;;;10.75;2.97;;;;;;;;;;5012637;28;20057;-65
2022/05/04 00:45:07;;;;;;;11.48;2.85;;;;;;;;;;5013481;28;20100;-65
2022/05/04 00:47:34;;;;;;;8.23;2.53;;;;;;;;;;5012983;28;20104;-65
2022/05/04 00:50:04;;;;;;;9.00;2.83;;;;;;;;;;5012480;28;20096;-65
2022/05/04 00:52:30;;;;;;;15.07;2.70;;;;;;;;;;5013179;28;20057;-65
2022/05/04 00:54:56;;;;;;;8.77;3.03;;;;;;;;;;5013293;28;20038;-65
2022/05/04 00:58:54;;;;;;;11.18;2.67;;;;;;;;;;5012331;28;20087;-65
2022/05/04 01:00:09;;;;;;;16.52;3.00;;;;;;;;;;5012935;28;20048;-65
2022/05/04 01:02:37;;;;;;;11.10;2.50;;;;;;;;;;5013022;28;20125;-65
2022/05/04 01:05:03;;;;;;;9.65;2.70;;;;;;;;;;5012326;28;20061;-65
2022/05/04 01:07:29;;;;;;;9.98;2.42;;;;;;;;;;5012992;28;20112;-65
2022/05/04 01:09:55;;;;;;;11.98;2.70;;;;;;;;;;5012513;28;20480;-65
2022/05/04 01:12:24;;;;;;;9.40;2.90;;;;;;;;;;5012187;28;20045;-65
2022/05/04 01:14:50;;;;;;;8.27;2.40;;;;;;;;;;5012771;28;20033;-65
2022/05/04 01:17:16;;;;;;;12.23;2.85;;;;;;;;;;5012942;28;20149;-65
2022/05/04 01:19:42;;;;;;;12.70;3.08;;;;;;;;;;5027222;28;20046;-65
2022/05/04 01:22:09;;;;;;;10.30;2.90;;;;;;;;;;5012640;28;20042;-65
2022/05/04 01:24:35;;;;;;;8.68;2.83;;;;;;;;;;5012876;28;20038;-65
2022/05/04 01:27:01;;;;;;;12.00;2.72;;;;;;;;;;5011706;28;20037;-65
2022/05/04 01:29:27;;;;;;;17.60;3.58;;;;;;;;;;5011050;28;20077;-65
2022/05/04 01:31:53;;;;;;;13.52;3.15;;;;;;;;;;5012709;28;20037;-65
2022/05/04 01:34:20;;;;;;;14.57;3.42;;;;;;;;;;5011743;28;20050;-65
2022/05/04 01:36:46;;;;;;;12.25;3.00;;;;;;;;;;5012538;28;20060;-65
2022/05/04 01:39:12;;;;;;;9.43;3.03;;;;;;;;;;5012169;28;20477;-65
2022/05/04 01:42:24;;;;;;;10.35;3.20;;;;;;;;;;5011585;28;20045;-65
2022/05/04 01:44:27;;;;;;;17.02;4.00;;;;;;;;;;5004017;28;20211;-65
2022/05/04 01:46:54;;;;;;;10.40;3.15;;;;;;;;;;5012299;28;20505;-65
2022/05/04 01:49:20;;;;;;;22.20;3.63;;;;;;;;;;5011219;28;20037;-65
2022/05/04 01:51:46;;;;;;;10.73;3.03;;;;;;;;;;5010552;28;20038;-65
2022/05/04 01:54:12;;;;;;;10.27;2.70;;;;;;;;;;5012148;28;20042;-65
2022/05/04 01:56:38;;;;;;;13.40;3.17;;;;;;;;;;5011619;28;20034;-65
2022/05/04 01:59:04;;;;;;;14.38;2.75;;;;;;;;;;5012065;28;20116;-65
2022/05/04 02:01:30;;;;;;;12.95;3.33;;;;;;;;;;5012162;28;20037;-65
2022/05/04 02:03:57;;;;;;;10.13;2.83;;;;;;;;;;5011592;28;20045;-65
2022/05/04 02:06:23;;;;;;;13.25;2.85;;;;;;;;;;5011565;28;20061;-65
2022/05/04 02:08:50;;;;;;;13.63;3.45;;;;;;;;;;5012071;28;20038;-65
2022/05/04 02:11:17;;;;;;;11.35;3.42;;;;;;;;;;5011339;28;20111;-65
2022/05/04 02:13:43;;;;;;;9.23;2.80;;;;;;;;;;5011823;28;20126;-65
2022/05/04 02:16:09;;;;;;;9.30;3.00;;;;;;;;;;5011825;28;20073;-65
2022/05/04 02:18:35;;;;;;;10.25;3.00;;;;;;;;;;5011027;28;20149;-65
2022/05/04 02:21:01;;;;;;;17.40;3.40;;;;;;;;;;5011873;28;20033;-65
2022/05/04 02:23:27;;;;;;;8.35;2.63;;;;;;;;;;5011923;28;20038;-65
2022/05/04 02:25:53;;;;;;;10.70;2.80;;;;;;;;;;5011129;28;20381;-65
2022/05/04 02:28:19;;;;;;;11.85;2.80;;;;;;;;;;5011445;28;20092;-65
2022/05/04 02:30:45;;;;;;;11.60;2.80;;;;;;;;;;5011830;28;20038;-65
2022/05/04 02:33:13;;;;;;;15.43;2.72;;;;;;;;;;5011204;28;20046;-65
2022/05/04 02:38:24;;;;;;;7.45;2.20;;;;;;;;;;5011183;28;20042;-65
2022/05/04 02:40:50;;;;;;;9.32;2.85;;;;;;;;;;5011022;28;20042;-65
2022/05/04 02:43:16;;;;;;;11.15;2.75;;;;;;;;;;5011562;28;20096;-65
2022/05/04 02:45:42;;;;;;;10.10;3.00;;;;;;;;;;5011650;28;20057;-65
2022/05/04 02:48:09;;;;;;;14.05;3.72;;;;;;;;;;5011093;28;20366;-65
2022/05/04 02:50:35;;;;;;;9.55;2.85;;;;;;;;;;5026543;28;20051;-65
2022/05/04 02:53:01;;;;;;;13.18;3.63;;;;;;;;;;5011463;28;20065;-65
2022/05/04 02:55:27;;;;;;;12.55;3.00;;;;;;;;;;5010769;28;20123;-65
2022/05/04 02:57:53;;;;;;;10.13;2.53;;;;;;;;;;5011347;28;20073;-65
2022/05/04 03:00:19;;;;;;;10.65;3.35;;;;;;;;;;5011630;28;20041;-65
2022/05/04 03:02:46;;;;;;;10.23;2.70;;;;;;;;;;5013578;28;20042;-65
2022/05/04 03:05:12;;;;;;;10.35;2.85;;;;;;;;;;5015095;28;20065;-65
2022/05/04 03:07:38;;;;;;;13.48;3.25;;;;;;;;;;5015035;28;20412;-65
2022/05/04 03:10:05;;;;;;;10.82;2.83;;;;;;;;;;5015005;28;20381;-65
2022/05/04 03:12:31;;;;;;;9.77;3.20;;;;;;;;;;5014708;28;20744;-65
2022/05/04 03:14:57;;;;;;;8.60;2.78;;;;;;;;;;5014999;28;20125;-65
2022/05/04 03:17:23;;;;;;;9.32;2.90;;;;;;;;;;5015190;28;20045;-65
2022/05/04 03:19:49;;;;;;;7.40;2.90;;;;;;;;;;5014219;28;20049;-65
2022/05/04 03:22:16;;;;;;;9.93;2.95;;;;;;;;;;5015017;28;20033;-65
2022/05/04 03:24:42;;;;;;;8.57;2.70;;;;;;;;;;5015046;28;20037;-65
2022/05/04 03:27:08;;;;;;;8.60;2.78;;;;;;;;;;5014057;28;20042;-65
2022/05/04 03:29:35;;;;;;;8.73;2.92;;;;;;;;;;5014920;28;20127;-65
2022/05/04 03:32:03;;;;;;;8.63;3.10;;;;;;;;;;5014811;28;20045;-65
2022/05/04 03:34:29;;;;;;;10.52;3.20;;;;;;;;;;5013835;28;20076;-65
2022/05/04 03:36:57;;;;;;;14.98;3.22;;;;;;;;;;5013529;28;20049;-65
2022/05/04 03:39:23;;;;;;;8.43;3.15;;;;;;;;;;5014308;28;20105;-65
2022/05/04 03:41:50;;;;;;;11.30;2.95;;;;;;;;;;5014010;28;20137;-65
2022/05/04 03:44:16;;;;;;;9.15;2.95;;;;;;;;;;5014543;28;20381;-65
2022/05/04 03:46:43;;;;;;;12.73;3.35;;;;;;;;;;5014524;28;20503;-65
2022/05/04 03:49:09;;;;;;;8.88;2.75;;;;;;;;;;5013821;28;20046;-65
2022/05/04 03:51:35;;;;;;;13.50;3.33;;;;;;;;;;5014277;28;20547;-65
2022/05/04 03:54:01;;;;;;;8.50;2.80;;;;;;;;;;5014275;28;20452;-65
2022/05/04 03:56:27;;;;;;;8.93;2.97;;;;;;;;;;5013796;28;20033;-65
2022/05/04 03:58:53;;;;;;;8.57;3.10;;;;;;;;;;5014144;28;20088;-65
2022/05/04 04:01:20;;;;;;;12.18;2.90;;;;;;;;;;5014609;28;20077;-65
2022/05/04 04:03:46;;;;;;;10.25;2.60;;;;;;;;;;5013528;28;20045;-65
2022/05/04 04:06:12;;;;;;;12.70;2.90;;;;;;;;;;5013813;28;20077;-65
2022/05/04 04:08:39;;;;;;;9.45;2.35;;;;;;;;;;5013882;28;20117;-65
2022/05/04 04:11:06;;;;;;;14.23;2.90;;;;;;;;;;5013347;28;20045;-65
2022/05/04 04:13:32;;;;;;;15.10;2.85;;;;;;;;;;5013874;28;20136;-65
2022/05/04 04:15:58;;;;;;;14.55;3.08;;;;;;;;;;5013896;28;20408;-65
2022/05/04 04:18:25;;;;;;;14.43;3.60;;;;;;;;;;5011728;28;20081;-65
2022/05/04 04:23:36;;;;;;;11.65;2.88;;;;;;;;;;5013772;28;20042;-65
2022/05/04 04:26:03;;;;;;;11.55;3.28;;;;;;;;;;5012862;28;20385;-65
2022/05/04 04:28:30;;;;;;;10.23;3.17;;;;;;;;;;5013541;28;20088;-65
2022/05/04 04:30:56;;;;;;;10.25;2.80;;;;;;;;;;5013671;28;20041;-65
2022/05/04 04:33:26;;;;;;;11.95;3.58;;;;;;;;;;5012783;28;20042;-65
2022/05/04 04:35:53;;;;;;;10.07;3.08;;;;;;;;;;5013283;28;20045;-65
2022/05/04 04:38:19;;;;;;;10.00;2.90;;;;;;;;;;5013148;28;20045;-65
2022/05/04 04:40:45;;;;;;;9.07;3.50;;;;;;;;;;5012577;28;20034;-65
2022/05/04 04:43:11;;;;;;;7.88;3.40;;;;;;;;;;5013319;28;20041;-65
2022/05/04 04:45:37;;;;;;;17.13;5.82;;;;;;;;;;5013450;28;20386;-65
2022/05/04 04:48:03;;;;;;;14.10;4.00;;;;;;;;;;5012547;28;20050;-65
2022/05/04 04:50:29;;;;;;;12.45;3.90;;;;;;;;;;5013172;28;20191;-65
2022/05/04 04:52:55;;;;;;;8.93;3.80;;;;;;;;;;5013365;28;20064;-65
2022/05/04 04:55:21;;;;;;;12.35;3.80;;;;;;;;;;5012416;28;20053;-65
2022/05/04 04:57:47;;;;;;;10.48;3.88;;;;;;;;;;5012774;28;20038;-65
2022/05/04 05:00:14;;;;;;;13.20;3.70;;;;;;;;;;5028085;28;20120;-65
2022/05/04 05:02:40;;;;;;;14.90;3.78;;;;;;;;;;5012351;28;20042;-65
2022/05/04 05:05:07;;;;;;;12.38;3.35;;;;;;;;;;5012785;28;20062;-65
2022/05/04 05:07:33;;;;;;;11.73;3.92;;;;;;;;;;5013003;28;20054;-65
2022/05/04 05:09:59;;;;;;;12.10;3.50;;;;;;;;;;5012291;28;20436;-65
2022/05/04 05:12:25;;;;;;;14.48;4.63;;;;;;;;;;5012876;28;20496;-65
2022/05/04 05:17:36;;;;;;;9.55;3.25;;;;;;;;;;5011930;28;20041;-65
2022/05/04 05:20:03;;;;;;;12.98;4.13;;;;;;;;;;5012562;28;20064;-65
2022/05/04 05:22:29;;;;;;;11.23;3.58;;;;;;;;;;5012389;28;20045;-65
2022/05/04 05:24:55;;;;;;;10.13;3.67;;;;;;;;;;5011467;28;20075;-65
2022/05/04 05:27:24;;;;;;;9.10;3.35;;;;;;;;;;5012496;28;20046;-65
2022/05/04 05:29:51;;;;;;;11.63;3.83;;;;;;;;;;5012584;28;20041;-65
2022/05/04 05:32:17;;;;;;;14.98;4.00;;;;;;;;;;5011891;28;20042;-65
2022/05/04 05:34:43;;;;;;;15.27;4.10;;;;;;;;;;5012543;28;20164;-65
2022/05/04 05:37:09;;;;;;;12.43;3.80;;;;;;;;;;5012241;28;20046;-65
2022/05/04 05:39:35;;;;;;;9.07;2.75;;;;;;;;;;5011632;28;20045;-65
2022/05/04 05:42:01;;;;;;;13.65;3.20;;;;;;;;;;5012396;28;20132;-65
2022/05/04 05:44:27;;;;;;;8.57;3.20;;;;;;;;;;5012091;28;20384;-65
2022/05/04 05:46:53;;;;;;;9.48;3.10;;;;;;;;;;5011273;28;20034;-65
2022/05/04 05:49:19;;;;;;;13.82;3.25;;;;;;;;;;5012023;28;20054;-65
2022/05/04 05:51:45;;;;;;;13.10;2.72;;;;;;;;;;5011862;28;20092;-65
2022/05/04 05:54:11;;;;;;;14.13;2.78;;;;;;;;;;5011619;28;20042;-65
2022/05/04 05:56:37;;;;;;;10.73;3.15;;;;;;;;;;5010234;28;20045;-66
2022/05/04 05:59:04;;;;;;;13.65;2.80;;;;;;;;;;5010399;28;20096;-66
2022/05/04 06:01:30;;;;;;;13.02;2.83;;;;;;;;;;5010911;28;20041;-66
2022/05/04 06:03:56;;;;;;;12.63;2.28;;;;;;;;;;5011063;28;20048;-66
2022/05/04 06:06:22;;;;;;;9.93;2.72;;;;;;;;;;5011385;28;20062;-66
2022/05/04 06:08:48;;;;;;;8.55;2.42;;;;;;;;;;5010769;28;20049;-66
2022/05/04 06:11:14;;;;;;;11.82;2.83;;;;;;;;;;5011457;28;20041;-66
2022/05/04 06:13:40;;;;;;;13.73;3.22;;;;;;;;;;5011008;28;20065;-65
2022/05/04 06:16:06;;;;;;;8.43;2.15;;;;;;;;;;5010420;28;20628;-66
2022/05/04 06:18:32;;;;;;;6.80;2.25;;;;;;;;;;5008762;28;20097;-66
2022/05/04 06:21:01;;;;;;;7.93;2.15;;;;;;;;;;5010760;28;20030;-66
2022/05/04 06:23:27;;;;;;;8.52;2.47;;;;;;;;;;5010766;28;20464;-66
2022/05/04 06:25:53;;;;;;;7.68;2.25;;;;;;;;;;5009775;28;20042;-66
2022/05/04 06:28:19;;;;;;;10.27;2.30;;;;;;;;;;5011341;28;20424;-66
2022/05/04 06:36:15;;;;;;;7.55;2.03;;;;;;;;;;5011636;28;20042;-66
2022/05/04 06:38:41;;;;;;;10.65;2.38;;;;;;;;;;5014089;28;20046;-65
2022/05/04 06:41:07;;;;;;;10.20;2.55;;;;;;;;;;5011044;28;20037;-66
2022/05/04 06:43:34;;;;;;;11.18;2.08;;;;;;;;;;5014435;28;20120;-66
2022/05/04 06:46:01;;;;;;;7.18;2.10;;;;;;;;;;5014420;28;20045;-66
2022/05/04 06:48:27;;;;;;;10.95;2.70;;;;;;;;;;5015237;28;20563;-66
2022/05/04 06:50:53;;;;;;;7.88;2.60;;;;;;;;;;5014309;28;20404;-65
2022/05/04 06:53:19;;;;;;;10.00;2.30;;;;;;;;;;5014098;28;20048;-65
2022/05/04 06:55:45;;;;;;;12.25;3.00;;;;;;;;;;5014602;28;20038;-66
2022/05/04 06:58:11;;;;;;;9.40;2.28;;;;;;;;;;5014735;28;20388;-66
2022/05/04 07:00:37;;;;;;;7.65;2.38;;;;;;;;;;5011584;28;20040;-66
2022/05/04 07:03:03;;;;;;;8.73;2.33;;;;;;;;;;5013214;28;20077;-66
2022/05/04 07:05:29;;;;;;;8.73;2.20;;;;;;;;;;5014205;28;20112;-66
2022/05/04 07:07:55;;;;;;;10.18;2.50;;;;;;;;;;5012751;28;20042;-66
2022/05/04 07:10:21;;;;;;;8.60;2.20;;;;;;;;;;5013438;28;20140;-65
2022/05/04 07:12:48;;;;;;;7.95;3.10;;;;;;;;;;5010255;28;20042;-65
2022/05/04 07:15:15;;;;;;;9.23;2.65;;;;;;;;;;5012506;28;20038;-65
2022/05/04 07:17:41;;;;;;;7.78;2.13;;;;;;;;;;5006821;28;21015;-64
2022/05/04 07:20:08;;;;;;;11.63;2.40;;;;;;;;;;5010006;28;20108;-63
2022/05/04 07:22:34;;;;;;;8.95;2.15;;;;;;;;;;5009174;28;20679;-62
2022/05/04 07:25:01;;;;;;;15.48;2.85;;;;;;;;;;5012743;28;20042;-63
2022/05/04 07:27:27;;;;;;;10.40;2.30;;;;;;;;;;5010730;28;20041;-63
2022/05/04 07:29:53;;;;;;;11.57;2.40;;;;;;;;;;5010726;28;20385;-63
2022/05/04 07:32:19;;;;;;;11.80;2.60;;;;;;;;;;5009640;28;20042;-63
2022/05/04 07:34:45;;;;;;;13.13;2.70;;;;;;;;;;5010665;28;20079;-62
2022/05/04 07:37:11;;;;;;;7.68;2.38;;;;;;;;;;5011642;28;20113;-63
2022/05/04 07:42:26;;;;;;;13.18;2.53;;;;;;;;;;5010490;28;20053;-63
2022/05/04 07:44:59;;;;;;;6.68;2.00;;;;;;;;;;5011109;28;20038;-63
2022/05/04 07:47:26;;;;;;;7.50;2.33;;;;;;;;;;5008419;28;20033;-63
2022/05/04 07:49:53;;;;;;;14.18;2.60;;;;;;;;;;5010146;28;20391;-62
2022/05/04 07:52:19;;;;;;;7.97;2.42;;;;;;;;;;5010303;28;20427;-63
2022/05/04 07:54:45;;;;;;;10.80;2.42;;;;;;;;;;5010026;28;20038;-63
2022/05/04 07:57:11;;;;;;;6.47;2.30;;;;;;;;;;5008041;28;20041;-64
2022/05/04 07:59:37;;;;;;;8.63;2.38;;;;;;;;;;5009549;28;20033;-63
2022/05/04 08:04:49;;;;;;;8.50;2.40;;;;;;;;;;5007264;28;20042;-63
2022/05/04 08:07:16;;;;;;;6.50;2.30;;;;;;;;;;5012188;28;20493;-63
2022/05/04 08:09:42;;;;;;;8.80;2.20;;;;;;;;;;5012442;28;20503;-63
2022/05/04 08:12:11;;;;;;;9.18;2.08;;;;;;;;;;5011822;28;20129;-63
2022/05/04 08:14:39;;;;;;;6.32;2.25;;;;;;;;;;5010188;28;20048;-64
2022/05/04 08:17:05;;;;;;;7.38;2.25;;;;;;;;;;5010698;28;20074;-63
2022/05/04 08:19:31;;;;;;;8.55;2.40;;;;;;;;;;5011150;28;20113;-64
2022/05/04 08:21:57;;;;;;;8.70;2.60;;;;;;;;;;5010724;28;20048;-63
2022/05/04 08:24:23;;;;;;;7.35;2.58;;;;;;;;;;5011074;28;20050;-64
2022/05/04 08:26:49;;;;;;;4.97;2.00;;;;;;;;;;5012320;28;20048;-64
2022/05/04 08:29:15;;;;;;;8.82;2.35;;;;;;;;;;5010645;28;20063;-66
2022/05/04 08:31:41;;;;;;;10.77;2.45;;;;;;;;;;5010852;28;20773;-66
2022/05/04 08:34:08;;;;;;;11.02;2.40;;;;;;;;;;5011423;28;20040;-66
2022/05/04 08:36:38;;;;;;;10.70;2.15;;;;;;;;;;5010364;28;20054;-67
2022/05/04 08:39:07;;;;;;;7.20;2.13;;;;;;;;;;5012331;28;20042;-66
2022/05/04 08:41:36;;;;;;;8.15;2.55;;;;;;;;;;5004062;28;20045;-66
2022/05/04 08:44:03;;;;;;;9.50;2.88;;;;;;;;;;5007523;28;20054;-67
2022/05/04 08:46:32;;;;;;;11.27;2.50;;;;;;;;;;5000837;28;20412;-66
2022/05/04 08:48:59;;;;;;;6.45;2.17;;;;;;;;;;5011707;28;20099;-66
2022/05/04 08:51:25;;;;;;;9.13;2.83;;;;;;;;;;5007188;28;20395;-65
2022/05/04 08:53:51;;;;;;;12.90;2.70;;;;;;;;;;5008404;28;20038;-65
2022/05/04 08:56:17;;;;;;;10.68;2.47;;;;;;;;;;5009817;28;20417;-64
2022/05/04 08:58:43;;;;;;;11.45;2.92;;;;;;;;;;5005048;28;20089;-64
2022/05/04 09:01:09;;;;;;;9.85;2.75;;;;;;;;;;5008741;28;20605;-63
2022/05/04 09:03:36;;;;;;;6.28;2.10;;;;;;;;;;5008514;28;20069;-62
2022/05/04 09:06:02;;;;;;;10.30;2.53;;;;;;;;;;5005931;28;20089;-64
2022/05/04 09:08:28;;;;;;;10.00;2.40;;;;;;;;;;5009421;28;20405;-63
2022/05/04 09:10:54;;;;;;;7.35;2.42;;;;;;;;;;5009590;28;20046;-63
2022/05/04 09:13:20;;;;;;;8.25;2.10;;;;;;;;;;5012644;28;20120;-65
2022/05/04 09:15:47;;;;;;;6.22;2.30;;;;;;;;;;5012002;28;20100;-64
2022/05/04 09:18:16;;;;;;;6.38;2.10;;;;;;;;;;5011695;28;20044;-63
2022/05/04 09:20:48;;;;;;;9.93;2.60;;;;;;;;;;5008624;28;20620;-64
2022/05/04 09:23:17;;;;;;;8.48;2.35;;;;;;;;;;5007375;28;20044;-61
2022/05/04 09:25:43;;;;;;;11.43;2.55;;;;;;;;;;5004298;28;20065;-64
2022/05/04 09:28:10;;;;;;;7.32;2.10;;;;;;;;;;5005002;28;20454;-60
2022/05/04 09:30:38;;;;;;;5.93;2.72;;;;;;;;;;5009150;28;20404;-63
2022/05/04 09:33:09;;;;;;;7.40;2.22;;;;;;;;;;5010360;28;20385;-61
2022/05/04 09:35:35;;;;;;;8.40;2.50;;;;;;;;;;5009278;28;20042;-63
2022/05/04 09:46:47;;;;;;;10.15;2.80;;;;;;;;;;5010514;28;20426;-64
2022/05/04 09:49:15;;;;;;;8.25;2.50;;;;;;;;;;5011274;28;20057;-63
2022/05/04 09:51:44;;;;;;;10.77;2.80;;;;;;;;;;5006270;28;20096;-66
2022/05/04 09:54:13;;;;;;;6.88;2.30;;;;;;;;;;5007583;28;20192;-65
2022/05/04 09:56:41;;;;;;;7.03;2.70;;;;;;;;;;5003302;28;20053;-66
2022/05/04 09:59:07;;;;;;;8.05;2.75;;;;;;;;;;5012815;28;20041;-64
2022/05/04 10:01:33;;;;;;;10.35;2.72;;;;;;;;;;5010778;28;20041;-66
2022/05/04 10:04:00;;;;;;;10.55;2.53;;;;;;;;;;5009818;28;20104;-66
2022/05/04 10:06:26;;;;;;;5.45;2.42;;;;;;;;;;5002856;28;20112;-66
2022/05/04 10:08:52;;;;;;;10.52;2.42;;;;;;;;;;5009453;28;20042;-65
2022/05/04 10:11:19;;;;;;;7.68;2.17;;;;;;;;;;5009313;28;20053;-65
2022/05/04 10:13:46;;;;;;;6.45;2.30;;;;;;;;;;5011841;28;20161;-64
2022/05/04 10:16:12;;;;;;;10.65;2.70;;;;;;;;;;5007715;28;20541;-64
2022/05/04 10:18:39;;;;;;;7.75;2.67;;;;;;;;;;5008116;28;20374;-65
2022/05/04 10:21:16;;;;;;;7.10;2.80;;;;;;;;;;5007630;28;20350;-66
2022/05/04 10:23:48;;;;;;;10.88;2.78;;;;;;;;;;5006945;28;20045;-65
2022/05/04 10:26:14;;;;;;;;;;;;;;;;;;5004615;28;20852;-64
2022/05/04 10:31:51;;;;;;;10.88;2.55;;;;;;;;;;4951480;28;20110;-68
2022/05/04 10:34:17;;;;;;;6.40;2.10;;;;;;;;;;5004921;28;20045;-66
2022/05/04 10:36:46;;;;;;;8.82;2.45;;;;;;;;;;5008764;28;20034;-67
2022/05/04 10:39:18;;;;;;;10.48;2.60;;;;;;;;;;5003979;28;20049;-66
2022/05/04 10:41:44;;;;;;;10.80;2.50;;;;;;;;;;5006637;28;20473;-64
2022/05/04 10:44:11;;;;;;;9.82;2.42;;;;;;;;;;5009014;28;20333;-64
2022/05/04 10:46:41;;;;;;;9.07;2.95;;;;;;;;;;5008060;28;20052;-65
2022/05/04 10:49:13;;;;;;;9.05;2.28;;;;;;;;;;5007232;28;20409;-64
2022/05/04 10:51:39;;;;;;;8.77;2.25;;;;;;;;;;5020252;28;20474;-63
2022/05/04 10:54:09;;;;;;;10.73;2.60;;;;;;;;;;5012078;28;20041;-64
2022/05/04 10:56:44;;;;;;;7.32;2.55;;;;;;;;;;5012805;28;20037;-64
2022/05/04 10:59:11;;;;;;;6.55;2.50;;;;;;;;;;5011163;28;20046;-63
2022/05/04 11:01:38;;;;;;;10.73;2.50;;;;;;;;;;5014378;28;20040;-63
2022/05/04 11:04:10;;;;;;;6.97;2.28;;;;;;;;;;5004907;28;20906;-62
2022/05/04 11:06:38;;;;;;;13.13;2.10;;;;;;;;;;5014236;28;20104;-63
2022/05/04 11:09:06;;;;;;;10.45;2.50;;;;;;;;;;5015986;28;20042;-63
2022/05/04 11:11:32;;;;;;;10.63;2.58;;;;;;;;;;5015202;28;20042;-64
2022/05/04 11:13:58;;;;;;;6.82;2.13;;;;;;;;;;5015202;28;20141;-63
2022/05/04 11:16:26;;;;;;;9.32;2.55;;;;;;;;;;5011480;28;20084;-62
2022/05/04 11:18:52;;;;;;;6.15;2.47;;;;;;;;;;5006921;28;20050;-63
2022/05/04 11:21:19;;;;;;;6.25;2.50;;;;;;;;;;5011523;28;20046;-63
2022/05/04 11:23:52;;;;;;;8.40;2.70;;;;;;;;;;5014823;28;20053;-64
2022/05/04 11:26:20;;;;;;;7.53;2.05;;;;;;;;;;5016093;28;20053;-64
2022/05/04 11:28:47;;;;;;;10.63;2.75;;;;;;;;;;5015777;28;20053;-64
2022/05/04 11:31:13;;;;;;;7.32;2.33;;;;;;;;;;5018324;28;20044;-64
2022/05/04 11:33:43;;;;;;;5.90;2.63;;;;;;;;;;5017950;28;20192;-64
2022/05/04 11:36:09;;;;;;;9.35;2.40;;;;;;;;;;5015350;28;20045;-64
2022/05/04 11:38:35;;;;;;;8.98;2.47;;;;;;;;;;5018158;28;20073;-64
2022/05/04 11:41:02;;;;;;;5.13;1.88;;;;;;;;;;5018582;28;20046;-64
2022/05/04 11:43:29;;;;;;;9.00;2.45;;;;;;;;;;5017486;28;20041;-64
2022/05/04 11:45:55;;;;;;;6.65;2.33;;;;;;;;;;5017268;28;20061;-64
2022/05/04 11:48:21;;;;;;;7.68;2.28;;;;;;;;;;5016369;28;20108;-64
2022/05/04 11:50:48;;;;;;;4.70;1.80;;;;;;;;;;5015326;28;20053;-64
2022/05/04 11:53:14;;;;;;;6.03;1.98;;;;;;;;;;5018142;28;20045;-64
2022/05/04 11:55:41;;;;;;;9.88;2.38;;;;;;;;;;5015864;28;20092;-64
2022/05/04 11:58:11;;;;;;;6.28;2.50;;;;;;;;;;5016180;28;20038;-64
2022/05/04 12:00:43;;;;;;;4.07;2.13;;;;;;;;;;5016311;28;20038;-64
2022/05/04 12:03:11;;;;;;;8.55;2.60;;;;;;;;;;5012998;28;20045;-65
2022/05/04 12:05:38;;;;;;;6.97;2.10;;;;;;;;;;5012109;28;20053;-64
2022/05/04 12:08:04;;;;;;;5.50;2.30;;;;;;;;;;5012772;28;20057;-65
2022/05/04 12:10:31;;;;;;;7.05;2.53;;;;;;;;;;5014108;28;20057;-65
2022/05/04 12:13:01;;;;;;;7.35;2.10;;;;;;;;;;5014041;28;20503;-64
2022/05/04 12:15:28;;;;;;;9.13;2.55;;;;;;;;;;5017223;28;20072;-64
2022/05/04 12:18:01;;;;;;;7.57;2.47;;;;;;;;;;5029178;28;20034;-64
2022/05/04 12:20:27;;;;;;;8.70;2.58;;;;;;;;;;5015020;28;20034;-64
2022/05/04 12:22:54;;;;;;;7.80;2.58;;;;;;;;;;5012330;28;20050;-66
2022/05/04 12:25:21;;;;;;;5.00;2.30;;;;;;;;;;5014023;28;20041;-65
2022/05/04 12:27:47;;;;;;;10.45;2.65;;;;;;;;;;5012494;28;20042;-65
2022/05/04 12:33:11;;;;;;;8.82;2.58;;;;;;;;;;5010582;28;20057;-66
2022/05/04 12:35:46;;;;;;;7.15;2.42;;;;;;;;;;5013345;28;20046;-64
2022/05/04 12:38:15;;;;;;;6.25;2.60;;;;;;;;;;5010413;28;20650;-64
2022/05/04 12:40:42;;;;;;;7.43;2.78;;;;;;;;;;5008839;28;20042;-66
2022/05/04 12:43:08;;;;;;;11.98;2.65;;;;;;;;;;5007013;28;20077;-63
2022/05/04 12:45:35;;;;;;;8.05;2.65;;;;;;;;;;5014948;28;20037;-65
2022/05/04 12:48:01;;;;;;;6.95;2.67;;;;;;;;;;5012403;28;20061;-65
2022/05/04 12:50:29;;;;;;;8.93;2.42;;;;;;;;;;5012849;28;20551;-64
2022/05/04 12:52:56;;;;;;;8.20;3.40;;;;;;;;;;5011795;28;20268;-65
2022/05/04 12:58:09;;;;;;;8.90;2.50;;;;;;;;;;5004721;28;20076;-63
2022/05/04 13:00:35;;;;;;;6.43;2.55;;;;;;;;;;5012664;28;20176;-65
2022/05/04 13:03:01;;;;;;;5.75;2.50;;;;;;;;;;5007694;28;20474;-64
2022/05/04 13:05:27;;;;;;;6.38;2.30;;;;;;;;;;5010690;28;20432;-66
2022/05/04 13:07:53;;;;;;;8.40;2.95;;;;;;;;;;5011098;28;20168;-64
2022/05/04 13:10:19;;;;;;;9.27;2.50;;;;;;;;;;5011824;28;20061;-65
2022/05/04 13:12:45;;;;;;;8.40;2.65;;;;;;;;;;5009124;28;20763;-65
2022/05/04 13:15:11;;;;;;;8.07;2.70;;;;;;;;;;5008248;28;20271;-64
2022/05/04 13:17:37;;;;;;;8.55;2.80;;;;;;;;;;5011140;28;20049;-64
2022/05/04 13:20:04;;;;;;;8.73;2.53;;;;;;;;;;5005484;28;20042;-64
2022/05/04 13:22:30;;;;;;;10.07;3.00;;;;;;;;;;5009701;28;20052;-64
2022/05/04 13:24:59;;;;;;;6.47;2.30;;;;;;;;;;5010034;28;20030;-64
2022/05/04 13:27:25;;;;;;;5.50;2.33;;;;;;;;;;5009033;28;20076;-64
2022/05/04 13:29:51;;;;;;;10.50;2.60;;;;;;;;;;5010812;28;20048;-64
2022/05/04 13:32:17;;;;;;;5.72;2.13;;;;;;;;;;5009793;28;20341;-64
2022/05/04 13:34:43;;;;;;;9.18;2.78;;;;;;;;;;5011814;28;20049;-64
2022/05/04 13:37:10;;;;;;;9.50;2.30;;;;;;;;;;5010753;28;20053;-64
2022/05/04 13:39:36;;;;;;;9.93;2.35;;;;;;;;;;5010263;28;20037;-64
2022/05/04 13:42:05;;;;;;;5.00;2.03;;;;;;;;;;5010210;28;20172;-64
2022/05/04 13:44:31;;;;;;;7.15;2.67;;;;;;;;;;5010380;28;20050;-64
2022/05/04 13:46:57;;;;;;;5.68;2.15;;;;;;;;;;5009750;28;20129;-64
2022/05/04 13:49:23;;;;;;;5.50;2.33;;;;;;;;;;5010461;28;20160;-62
2022/05/04 13:54:34;;;;;;;7.32;2.63;;;;;;;;;;5009169;28;20053;-63
2022/05/04 13:57:00;;;;;;;9.18;2.47;;;;;;;;;;5011022;28;20169;-63
2022/05/04 13:59:26;;;;;;;4.63;1.90;;;;;;;;;;5011054;28;20033;-62
2022/05/04 14:01:52;;;;;;;6.30;2.25;;;;;;;;;;5009669;28;20034;-63
2022/05/04 14:04:18;;;;;;;8.82;3.17;;;;;;;;;;5009665;28;20048;-62
2022/05/04 14:06:45;;;;;;;6.70;2.38;;;;;;;;;;5011158;28;20058;-63
2022/05/04 14:09:11;;;;;;;6.07;2.50;;;;;;;;;;5008924;28;20062;-63
2022/05/04 14:11:38;;;;;;;3.75;1.92;;;;;;;;;;5008473;28;20570;-63
2022/05/04 14:16:49;;;;;;;6.53;2.75;;;;;;;;;;5010632;28;20045;-63
2022/05/04 14:19:15;;;;;;;7.90;2.45;;;;;;;;;;5010615;28;20424;-63
2022/05/04 14:21:41;;;;;;;7.45;2.70;;;;;;;;;;5011343;28;20042;-63
2022/05/04 14:24:07;;;;;;;6.22;2.22;;;;;;;;;;5009482;28;20184;-63
2022/05/04 14:26:33;;;;;;;5.53;2.20;;;;;;;;;;5011272;28;20500;-63
2022/05/04 14:29:00;;;;;;;6.00;2.45;;;;;;;;;;5007607;28;20045;-63
2022/05/04 14:31:26;;;;;;;5.35;2.20;;;;;;;;;;5010209;28;20477;-63
2022/05/04 14:33:52;;;;;;;6.20;2.30;;;;;;;;;;5010304;28;20049;-64
2022/05/04 14:36:18;;;;;;;6.97;2.38;;;;;;;;;;5010561;28;20042;-63
2022/05/04 14:38:44;;;;;;;5.68;2.25;;;;;;;;;;5010421;28;20148;-63
2022/05/04 14:41:10;;;;;;;7.97;2.28;;;;;;;;;;5010539;28;20042;-62
2022/05/04 14:43:36;;;;;;;5.55;2.28;;;;;;;;;;5010666;28;20049;-61
2022/05/04 14:46:02;;;;;;;6.93;1.98;;;;;;;;;;5010281;28;20136;-62
2022/05/04 14:48:28;;;;;;;5.07;2.20;;;;;;;;;;5010984;28;20373;-61
2022/05/04 14:50:54;;;;;;;6.68;2.47;;;;;;;;;;5010914;28;20041;-61
2022/05/04 14:53:20;;;;;;;7.20;2.10;;;;;;;;;;5010253;28;20046;-61
2022/05/04 14:55:46;;;;;;;6.72;2.53;;;;;;;;;;5008747;28;20046;-61
2022/05/04 14:58:12;;;;;;;8.48;2.70;;;;;;;;;;5013070;28;20041;-61
2022/05/04 15:00:39;;;;;;;5.72;2.60;;;;;;;;;;5013848;28;20121;-61
2022/05/04 15:05:49;;;;;;;8.30;2.47;;;;;;;;;;5014122;28;20062;-61
2022/05/04 15:08:15;;;;;;;6.35;2.50;;;;;;;;;;5014187;28;20125;-61
2022/05/04 15:10:41;;;;;;;4.07;1.90;;;;;;;;;;5014691;28;20053;-60
2022/05/04 15:13:07;;;;;;;6.38;2.13;;;;;;;;;;5014465;28;20046;-61
2022/05/04 15:15:33;;;;;;;7.25;2.42;;;;;;;;;;5014187;28;20044;-61
2022/05/04 15:18:00;;;;;;;6.18;1.90;;;;;;;;;;5011898;28;20096;-61
2022/05/04 15:20:27;;;;;;;5.40;2.40;;;;;;;;;;5013981;28;20034;-61